Time;durP1;ratioP1;P1;durP2;ratioP2;P2;SDS_P1;SDS_P2;PMS_P1;PMS_P2;Temp;Humidity;BMP_temperature;BMP_pressure;BME280_temperature;BME280_humidity;BME280_pressure;Samples;Min_cycle;Max_cycle;Signal;HPM_P1;HPM_P2
2022/05/19 00:00:18;0.00;0.00;0.62;0.00;0.00;0.62;4.27;3.87;;;29.00;29.60;;;;;;2244709;61;20926;-62
2022/05/19 00:03:03;0.00;0.00;0.62;0.00;0.00;0.62;4.43;4.03;;;29.00;29.70;;;;;;2244867;61;20860;-62
2022/05/19 00:05:49;0.00;0.00;0.62;0.00;0.00;0.62;4.80;3.63;;;28.90;29.70;;;;;;2244687;61;20787;-65
2022/05/19 00:08:34;0.00;0.00;0.62;0.00;0.00;0.62;3.77;3.47;;;28.90;29.70;;;;;;2245169;61;20775;-61
2022/05/19 00:11:26;0.00;0.00;0.62;0.00;0.00;0.62;5.13;3.60;;;28.90;29.80;;;;;;2244348;61;20372;-60
2022/05/19 00:14:11;0.00;0.00;0.62;0.00;0.00;0.62;4.13;3.83;;;28.80;29.80;;;;;;2244438;61;20365;-59
2022/05/19 00:16:58;0.00;0.00;0.62;0.00;0.00;0.62;6.27;3.80;;;28.80;29.80;;;;;;2244997;61;20515;-61
2022/05/19 00:19:43;0.00;0.00;0.62;0.00;0.00;0.62;3.70;3.30;;;28.80;29.90;;;;;;2244727;61;20890;-62
2022/05/19 00:22:27;0.00;0.00;0.62;0.00;0.00;0.62;4.47;3.47;;;28.70;29.80;;;;;;2244293;61;20376;-61
2022/05/19 00:25:12;0.00;0.00;0.62;0.00;0.00;0.62;4.63;4.23;;;28.70;29.90;;;;;;2244557;61;20613;-63
2022/05/19 00:27:57;0.00;0.00;0.62;0.00;0.00;0.62;4.43;3.40;;;28.70;30.00;;;;;;2244520;61;20379;-62
2022/05/19 00:30:42;0.00;0.00;0.62;0.00;0.00;0.62;5.90;4.40;;;28.70;30.00;;;;;;2244567;61;20364;-64
2022/05/19 00:33:28;0.00;0.00;0.62;0.00;0.00;0.62;4.43;4.03;;;28.60;30.00;;;;;;2244564;61;20368;-67
2022/05/19 00:36:16;0.00;0.00;0.62;0.00;0.00;0.62;4.43;3.50;;;28.60;30.10;;;;;;2244609;61;20384;-64
2022/05/19 00:39:01;0.00;0.00;0.62;0.00;0.00;0.62;4.43;3.70;;;28.60;30.20;;;;;;2244795;61;20388;-62
2022/05/19 00:41:46;0.00;0.00;0.62;0.00;0.00;0.62;6.70;4.37;;;28.60;30.20;;;;;;2244056;61;20368;-64
2022/05/19 00:44:31;0.00;0.00;0.62;0.00;0.00;0.62;4.40;3.70;;;28.60;30.20;;;;;;2244652;61;20771;-65
2022/05/19 00:47:23;0.00;0.00;0.62;0.00;0.00;0.62;4.20;3.80;;;28.50;30.20;;;;;;2249703;61;20400;-67
2022/05/19 00:50:21;0.00;0.00;0.62;0.00;0.00;0.62;5.10;3.70;;;28.60;30.20;;;;;;2244845;61;20770;-63
2022/05/19 00:53:12;0.00;0.00;0.62;0.00;0.00;0.62;4.73;3.30;;;28.50;30.20;;;;;;2244954;61;20377;-59
2022/05/19 00:56:03;0.00;0.00;0.62;0.00;0.00;0.62;4.77;3.93;;;28.50;30.10;;;;;;2245444;61;20427;-65
2022/05/19 00:58:56;0.00;0.00;0.62;0.00;0.00;0.62;4.93;4.10;;;28.50;30.10;;;;;;2248493;61;20791;-60
2022/05/19 01:01:43;0.00;0.00;0.62;0.00;0.00;0.62;6.80;4.37;;;28.50;30.20;;;;;;2247786;61;20363;-64
2022/05/19 01:04:36;0.00;0.00;0.62;0.00;0.00;0.62;4.40;3.77;;;28.50;30.20;;;;;;2248661;61;20371;-63
2022/05/19 01:07:29;0.00;0.00;0.62;0.00;0.00;0.62;4.37;3.80;;;28.50;30.20;;;;;;2248303;61;20939;-64
2022/05/19 01:10:14;0.00;0.00;0.62;0.00;0.00;0.62;5.10;4.60;;;28.40;30.30;;;;;;2248372;61;20824;-66
2022/05/19 01:12:59;0.00;0.00;0.62;0.00;0.00;0.62;4.57;3.63;;;28.40;30.30;;;;;;2248388;61;20414;-60
2022/05/19 01:15:48;0.00;0.00;0.62;0.00;0.00;0.62;4.03;3.67;;;28.40;30.30;;;;;;2248741;61;20415;-65
2022/05/19 01:18:36;0.00;0.00;0.62;0.00;0.00;0.62;6.07;4.40;;;28.40;30.30;;;;;;2248528;61;20391;-65
2022/05/19 01:21:22;0.00;0.00;0.62;0.00;0.00;0.62;3.90;3.50;;;28.40;30.40;;;;;;2248115;61;20916;-63
2022/05/19 01:24:18;0.00;0.00;0.62;0.00;0.00;0.62;5.10;4.00;;;28.40;30.40;;;;;;2248517;61;20419;-63
2022/05/19 01:27:04;0.00;0.00;0.62;0.00;0.00;0.62;4.50;4.10;;;28.40;30.40;;;;;;2248613;61;20372;-65
2022/05/19 01:29:49;0.00;0.00;0.62;0.00;0.00;0.62;4.33;3.93;;;28.30;30.40;;;;;;2248954;61;20415;-65
2022/05/19 01:32:33;0.00;0.00;0.62;0.00;0.00;0.62;4.23;3.80;;;28.30;30.50;;;;;;2248198;61;20388;-67
2022/05/19 01:35:19;0.00;0.00;0.62;0.00;0.00;0.62;4.40;4.00;;;28.30;30.50;;;;;;2248109;61;20395;-64
2022/05/19 01:38:14;0.00;0.00;0.62;0.00;0.00;0.62;5.20;4.70;;;28.30;30.60;;;;;;2248820;61;20370;-64
2022/05/19 01:41:18;0.00;0.00;0.62;0.00;0.00;0.62;6.57;4.17;;;28.20;30.60;;;;;;2250515;61;20398;-64
2022/05/19 01:44:23;0.00;0.00;0.62;0.00;0.00;0.62;6.10;4.00;;;28.20;30.60;;;;;;2248745;61;20422;-66
2022/05/19 01:47:15;0.00;0.00;0.62;0.00;0.00;0.62;4.83;4.37;;;28.20;30.70;;;;;;2248744;61;20375;-66
2022/05/19 01:50:10;0.00;0.00;0.62;0.00;0.00;0.62;4.07;3.77;;;28.10;31.30;;;;;;2248324;61;20355;-65
2022/05/19 01:53:01;0.00;0.00;0.62;0.00;0.00;0.62;5.33;4.07;;;28.10;30.60;;;;;;2248918;61;20489;-66
2022/05/19 01:55:55;0.00;0.00;0.62;0.00;0.00;0.62;3.90;3.50;;;28.10;30.60;;;;;;2248111;61;20384;-66
2022/05/19 01:58:47;0.00;0.00;0.62;0.00;0.00;0.62;3.20;2.90;;;28.10;30.70;;;;;;2248485;61;20439;-66
2022/05/19 02:01:33;0.00;0.00;0.62;0.00;0.00;0.62;5.53;3.40;;;28.10;30.70;;;;;;2248134;61;20414;-68
2022/05/19 02:04:25;0.00;0.00;0.62;0.00;0.00;0.62;3.80;3.40;;;28.20;30.80;;;;;;2248087;61;20372;-66
2022/05/19 02:07:13;0.00;0.00;0.62;0.00;0.00;0.62;3.80;3.50;;;28.20;30.80;;;;;;2248728;61;20422;-66
2022/05/19 02:10:04;0.00;0.00;0.62;0.00;0.00;0.62;3.70;3.37;;;28.20;30.70;;;;;;2248590;61;20432;-66
2022/05/19 02:12:50;0.00;0.00;0.62;0.00;0.00;0.62;4.50;3.07;;;28.30;30.80;;;;;;2248158;61;20429;-67
2022/05/19 02:15:41;0.00;0.00;0.62;0.00;0.00;0.62;3.37;3.07;;;28.30;31.40;;;;;;2248647;61;20475;-67
2022/05/19 02:18:27;0.00;0.00;0.62;0.00;0.00;0.62;3.70;3.20;;;28.40;30.70;;;;;;2248485;61;20991;-67
2022/05/19 02:21:12;0.00;0.00;0.62;0.00;0.00;0.62;3.27;2.93;;;28.40;30.60;;;;;;2247511;61;20376;-67
2022/05/19 02:24:01;0.00;0.00;0.62;0.00;0.00;0.62;3.63;3.17;;;28.40;30.60;;;;;;2248437;61;20363;-67
2022/05/19 02:26:45;0.00;0.00;0.62;0.00;0.00;0.62;3.90;3.40;;;28.50;30.70;;;;;;2248138;61;20776;-66
2022/05/19 02:29:30;0.00;0.00;0.62;0.00;0.00;0.62;6.07;3.43;;;28.50;30.60;;;;;;2248466;61;20368;-67
2022/05/19 02:32:14;0.00;0.00;0.62;0.00;0.00;0.62;3.53;3.03;;;28.60;30.60;;;;;;2247757;61;20830;-67
2022/05/19 02:35:00;0.00;0.00;0.62;0.00;0.00;0.62;3.60;3.30;;;28.60;30.60;;;;;;2248099;61;20785;-69
2022/05/19 02:37:45;0.00;0.00;0.62;0.00;0.00;0.62;4.07;3.77;;;28.60;30.50;;;;;;2248427;61;20375;-67
2022/05/19 02:40:33;0.00;0.00;0.62;0.00;0.00;0.62;4.07;3.67;;;28.60;30.40;;;;;;2248103;61;20459;-67
2022/05/19 02:43:18;0.00;0.00;0.62;0.00;0.00;0.62;3.90;3.50;;;28.70;30.40;;;;;;2248329;61;20380;-67
2022/05/19 02:46:05;0.00;0.00;0.62;0.00;0.00;0.62;3.37;3.10;;;28.70;30.40;;;;;;2244425;61;20392;-67
2022/05/19 02:48:50;0.00;0.00;0.62;0.00;0.00;0.62;3.80;3.50;;;28.80;30.40;;;;;;2248678;61;20448;-67
2022/05/19 02:51:35;0.00;0.00;0.62;0.00;0.00;0.62;4.90;4.13;;;28.80;30.20;;;;;;2243625;61;20385;-67
2022/05/19 02:54:21;0.00;0.00;0.62;0.00;0.00;0.62;5.90;4.47;;;28.80;30.10;;;;;;2250043;61;20371;-67
2022/05/19 02:57:06;0.00;0.00;0.62;0.00;0.00;0.62;7.50;4.40;;;28.80;30.00;;;;;;2248404;61;20368;-67
2022/05/19 02:59:51;0.00;0.00;0.62;0.00;0.00;0.62;5.63;4.53;;;28.80;29.90;;;;;;2246333;61;20392;-67
2022/05/19 03:02:36;0.00;0.00;0.62;0.00;0.00;0.62;9.10;4.37;;;28.90;29.90;;;;;;2243852;61;20367;-67
2022/05/19 03:05:24;0.00;0.00;0.62;0.00;0.00;0.62;4.83;4.33;;;28.80;29.90;;;;;;2244217;61;20428;-67
2022/05/19 03:08:11;0.00;0.00;0.62;0.00;0.00;0.62;4.70;4.30;;;28.80;29.80;;;;;;2244246;61;20960;-67
2022/05/19 03:10:55;0.00;0.00;0.62;0.00;0.00;0.62;5.10;4.60;;;28.80;30.00;;;;;;2243652;61;20412;-67
2022/05/19 03:13:40;0.00;0.00;0.62;0.00;0.00;0.62;4.40;4.00;;;28.80;29.70;;;;;;2244443;61;20432;-67
2022/05/19 03:16:25;0.00;0.00;0.62;0.00;0.00;0.62;5.00;4.50;;;28.80;29.70;;;;;;2244247;61;20404;-66
2022/05/19 03:19:12;0.00;0.00;0.62;0.00;0.00;0.62;4.80;4.40;;;28.80;29.70;;;;;;2244322;61;20972;-65
2022/05/19 03:21:57;0.00;0.00;0.62;0.00;0.00;0.62;4.80;4.40;;;28.80;29.70;;;;;;2243443;61;20364;-65
2022/05/19 03:24:43;0.00;0.00;0.62;0.00;0.00;0.62;4.90;4.23;;;28.80;29.60;;;;;;2244201;61;20924;-65
2022/05/19 03:27:28;0.00;0.00;0.62;0.00;0.00;0.62;4.60;3.83;;;28.80;29.60;;;;;;2244169;61;20368;-65
2022/05/19 03:30:15;0.00;0.00;0.62;0.00;0.00;0.62;4.80;4.40;;;28.80;29.60;;;;;;2244155;61;20901;-66
2022/05/19 03:33:00;0.00;0.00;0.62;0.00;0.00;0.62;6.47;4.50;;;28.80;29.50;;;;;;2244105;61;20396;-65
2022/05/19 03:35:55;0.00;0.00;0.62;0.00;0.00;0.62;4.70;4.20;;;28.80;29.50;;;;;;2244398;61;20392;-65
2022/05/19 03:38:40;0.00;0.00;0.62;0.00;0.00;0.62;6.70;4.70;;;28.80;29.50;;;;;;2243950;61;20399;-65
2022/05/19 03:41:26;0.00;0.00;0.62;0.00;0.00;0.62;4.90;4.50;;;28.80;29.50;;;;;;2243810;61;20396;-65
2022/05/19 03:44:11;0.00;0.00;0.62;0.00;0.00;0.62;8.30;5.00;;;28.70;29.50;;;;;;2244158;61;20376;-65
2022/05/19 03:46:55;0.00;0.00;0.62;0.00;0.00;0.62;5.10;4.60;;;28.80;29.50;;;;;;2244460;61;20435;-66
2022/05/19 03:49:40;0.00;0.00;0.62;0.00;0.00;0.62;5.00;3.90;;;28.80;29.50;;;;;;2244268;61;20893;-65
2022/05/19 03:52:24;0.00;0.00;0.62;0.00;0.00;0.62;4.40;4.00;;;28.70;29.40;;;;;;2243865;61;20372;-64
2022/05/19 03:55:13;0.00;0.00;0.62;0.00;0.00;0.62;4.93;4.20;;;28.80;29.40;;;;;;2243924;61;20388;-67
2022/05/19 03:57:59;0.00;0.00;0.62;0.00;0.00;0.62;5.83;4.73;;;28.70;29.40;;;;;;2244203;61;20404;-67
2022/05/19 04:00:44;0.00;0.00;0.62;0.00;0.00;0.62;4.50;4.10;;;28.70;29.30;;;;;;2243950;61;20376;-66
2022/05/19 04:03:28;0.00;0.00;0.62;0.00;0.00;0.62;4.73;4.33;;;28.70;29.30;;;;;;2244061;61;20407;-66
2022/05/19 04:06:13;0.00;0.00;0.62;0.00;0.00;0.62;5.10;4.60;;;28.70;29.30;;;;;;2244538;61;20638;-66
2022/05/19 04:08:59;0.00;0.00;0.62;0.00;0.00;0.62;5.10;4.70;;;28.70;29.30;;;;;;2244176;61;20408;-66
2022/05/19 04:11:43;0.00;0.00;0.62;0.00;0.00;0.62;4.90;4.40;;;28.70;29.30;;;;;;2243494;61;21227;-66
2022/05/19 04:14:31;0.00;0.00;0.62;0.00;0.00;0.62;5.77;4.00;;;28.60;29.30;;;;;;2244197;61;20369;-67
2022/05/19 04:17:16;0.00;0.00;0.62;0.00;0.00;0.62;4.60;4.20;;;28.60;29.30;;;;;;2248161;61;20410;-65
2022/05/19 04:20:02;0.00;0.00;0.62;0.00;0.00;0.62;6.37;4.13;;;28.60;29.30;;;;;;2247690;61;20380;-66
2022/05/19 04:22:46;0.00;0.00;0.62;0.00;0.00;0.62;5.67;4.20;;;28.50;29.30;;;;;;2253087;61;20376;-65
2022/05/19 04:25:31;0.00;0.00;0.62;0.00;0.00;0.62;5.00;4.50;;;28.50;29.40;;;;;;2247710;61;20789;-66
2022/05/19 04:28:15;0.00;0.00;0.62;0.00;0.00;0.62;5.53;5.03;;;28.50;29.40;;;;;;2248264;61;20439;-66
2022/05/19 04:31:01;0.00;0.00;0.62;0.00;0.00;0.62;4.30;3.90;;;28.50;29.40;;;;;;2247607;61;20368;-64
2022/05/19 04:33:46;0.00;0.00;0.62;0.00;0.00;0.62;4.93;4.53;;;28.50;29.40;;;;;;2248566;61;20371;-65
2022/05/19 04:36:30;0.00;0.00;0.62;0.00;0.00;0.62;4.13;3.83;;;28.50;29.50;;;;;;2248300;61;20402;-65
2022/05/19 04:39:15;0.00;0.00;0.62;0.00;0.00;0.62;4.60;4.20;;;28.40;29.40;;;;;;2248676;61;20478;-65
2022/05/19 04:42:03;0.00;0.00;0.62;0.00;0.00;0.62;5.07;4.57;;;28.40;29.40;;;;;;2248244;61;20419;-65
2022/05/19 04:44:48;0.00;0.00;0.62;0.00;0.00;0.62;4.50;4.10;;;28.40;29.40;;;;;;2248483;61;20388;-65
2022/05/19 04:47:34;0.00;0.00;0.62;0.00;0.00;0.62;4.70;4.27;;;28.40;29.50;;;;;;2248199;61;20371;-65
2022/05/19 04:50:19;0.00;0.00;0.62;0.00;0.00;0.62;4.47;4.07;;;28.40;29.50;;;;;;2248754;61;20900;-66
2022/05/19 04:53:05;0.00;0.00;0.62;0.00;0.00;0.62;5.10;4.30;;;28.40;29.50;;;;;;2248582;61;20883;-66
2022/05/19 04:55:52;0.00;0.00;0.62;0.00;0.00;0.62;6.00;4.70;;;28.40;29.50;;;;;;2248329;61;20992;-64
2022/05/19 04:58:37;0.00;0.00;0.62;0.00;0.00;0.62;4.47;4.07;;;28.40;29.60;;;;;;2248594;61;20519;-65
2022/05/19 05:01:21;0.00;0.00;0.62;0.00;0.00;0.62;4.70;4.30;;;28.40;29.50;;;;;;2248163;61;20830;-65
2022/05/19 05:04:08;0.00;0.00;0.62;0.00;0.00;0.62;4.77;4.30;;;28.30;29.60;;;;;;2248884;61;20765;-66
2022/05/19 05:06:53;0.00;0.00;0.62;0.00;0.00;0.62;4.00;3.67;;;28.30;29.60;;;;;;2248577;61;20419;-68
2022/05/19 05:09:38;0.00;0.00;0.62;0.00;0.00;0.62;5.13;4.63;;;28.30;29.60;;;;;;2248230;61;20441;-66
2022/05/19 05:12:23;0.00;0.00;0.62;0.00;0.00;0.62;5.80;4.80;;;28.30;29.60;;;;;;2248262;61;20507;-66
2022/05/19 05:15:09;0.00;0.00;0.62;0.00;0.00;0.62;4.70;4.30;;;28.30;29.60;;;;;;2252698;61;20472;-66
2022/05/19 05:17:54;0.00;0.00;0.62;0.00;0.00;0.62;5.00;4.53;;;28.20;29.60;;;;;;2248621;61;20415;-65
2022/05/19 05:20:42;0.00;0.00;0.62;0.00;0.00;0.62;5.10;4.60;;;28.30;29.60;;;;;;2248129;61;20419;-66
2022/05/19 05:23:28;0.00;0.00;0.62;0.00;0.00;0.62;5.57;5.00;;;28.30;29.70;;;;;;2248541;61;20942;-66
2022/05/19 05:26:12;0.00;0.00;0.62;0.00;0.00;0.62;5.30;4.67;;;28.30;30.20;;;;;;2248174;61;20467;-65
2022/05/19 05:28:57;0.00;0.00;0.62;0.00;0.00;0.62;5.43;4.93;;;28.20;29.70;;;;;;2248584;61;20344;-66
2022/05/19 05:31:41;0.00;0.00;0.62;0.00;0.00;0.62;4.30;3.90;;;28.20;29.80;;;;;;2247740;61;20415;-66
2022/05/19 05:34:26;0.00;0.00;0.62;0.00;0.00;0.62;5.50;5.00;;;28.10;29.80;;;;;;2248739;61;20951;-66
2022/05/19 05:37:12;0.00;0.00;0.62;0.00;0.00;0.62;5.07;4.57;;;28.10;29.90;;;;;;2248165;61;20422;-64
2022/05/19 05:39:57;0.00;0.00;0.62;0.00;0.00;0.62;4.80;4.40;;;28.10;30.50;;;;;;2248583;61;20391;-68
2022/05/19 05:42:42;0.00;0.00;0.62;0.00;0.00;0.62;4.73;4.27;;;28.10;30.00;;;;;;2248398;61;20407;-66
2022/05/19 05:45:26;0.00;0.00;0.62;0.00;0.00;0.62;5.50;4.30;;;28.00;29.90;;;;;;2248359;61;20928;-66
2022/05/19 05:48:11;0.00;0.00;0.62;0.00;0.00;0.62;7.93;4.13;;;28.00;30.00;;;;;;2253541;61;20419;-66
2022/05/19 05:50:56;0.00;0.00;0.62;0.00;0.00;0.62;5.77;4.20;;;28.00;30.00;;;;;;2247903;61;20367;-66
2022/05/19 05:53:44;0.00;0.00;0.62;0.00;0.00;0.62;4.83;4.37;;;28.00;30.00;;;;;;2248292;61;20450;-66
2022/05/19 05:56:29;0.00;0.00;0.62;0.00;0.00;0.62;6.13;4.37;;;28.00;30.00;;;;;;2248225;61;20400;-66
2022/05/19 05:59:14;0.00;0.00;0.62;0.00;0.00;0.62;5.23;4.40;;;28.00;30.10;;;;;;2248296;61;20416;-66
2022/05/19 06:01:59;0.00;0.00;0.62;0.00;0.00;0.62;4.20;3.80;;;28.00;30.10;;;;;;2247416;61;20375;-65
2022/05/19 06:04:43;0.00;0.00;0.62;0.00;0.00;0.62;7.30;4.60;;;27.90;30.00;;;;;;2248661;61;20438;-69
2022/05/19 06:07:29;0.00;0.00;0.62;0.00;0.00;0.62;6.30;4.13;;;28.00;30.00;;;;;;2248399;61;20573;-66
2022/05/19 06:10:15;0.00;0.00;0.62;0.00;0.00;0.62;5.83;4.63;;;28.00;30.00;;;;;;2248328;61;20402;-64
2022/05/19 06:13:00;0.00;0.00;0.62;0.00;0.00;0.62;5.17;4.33;;;28.00;30.00;;;;;;2248293;61;20472;-66
2022/05/19 06:15:45;0.00;0.00;0.62;0.00;0.00;0.62;3.97;3.57;;;28.00;30.00;;;;;;2248475;61;20993;-66
2022/05/19 06:18:30;0.00;0.00;0.62;0.00;0.00;0.62;4.37;3.97;;;28.00;30.00;;;;;;2248646;61;20367;-63
2022/05/19 06:21:14;0.00;0.00;0.62;0.00;0.00;0.62;4.50;4.10;;;28.00;30.00;;;;;;2247997;61;20371;-65
2022/05/19 06:23:59;0.00;0.00;0.62;0.00;0.00;0.62;5.20;4.70;;;28.00;30.00;;;;;;2248111;61;20371;-66
2022/05/19 06:26:45;0.00;0.00;0.62;0.00;0.00;0.62;5.57;4.47;;;28.00;30.00;;;;;;2248846;61;20383;-66
2022/05/19 06:29:30;0.00;0.00;0.62;0.00;0.00;0.62;7.83;4.43;;;28.10;30.00;;;;;;2247930;61;20380;-66
2022/05/19 06:32:14;0.00;0.00;0.62;0.00;0.00;0.62;6.73;4.23;;;28.10;30.00;;;;;;2248020;61;20597;-66
2022/05/19 06:34:59;0.00;0.00;0.62;0.00;0.00;0.62;4.93;4.10;;;28.10;30.00;;;;;;2247978;61;20396;-66
2022/05/19 06:37:44;0.00;0.00;0.62;0.00;0.00;0.62;4.83;4.30;;;28.10;30.00;;;;;;2248513;61;20376;-66
2022/05/19 06:40:30;0.00;0.00;0.62;0.00;0.00;0.62;4.30;3.90;;;28.10;29.90;;;;;;2248120;61;20391;-66
2022/05/19 06:43:19;0.00;0.00;0.62;0.00;0.00;0.62;4.57;4.17;;;28.10;29.90;;;;;;2248322;61;20363;-66
2022/05/19 06:46:07;0.00;0.00;0.62;0.00;0.00;0.62;4.60;4.13;;;28.10;29.90;;;;;;2247925;61;20464;-65
2022/05/19 06:48:52;0.00;0.00;0.62;0.00;0.00;0.62;4.40;4.00;;;28.10;29.80;;;;;;2247894;61;20396;-66
2022/05/19 06:51:37;0.00;0.00;0.62;0.00;0.00;0.62;4.83;4.23;;;28.10;29.80;;;;;;2247657;61;20367;-65
2022/05/19 06:54:22;0.00;0.00;0.62;0.00;0.00;0.62;8.17;3.97;;;28.20;29.90;;;;;;2247483;61;20944;-66
2022/05/19 06:57:07;0.00;0.00;0.62;0.00;0.00;0.62;4.50;4.03;;;28.20;29.80;;;;;;2248293;61;20834;-71
2022/05/19 06:59:53;0.00;0.00;0.62;0.00;0.00;0.62;4.80;4.20;;;28.10;29.70;;;;;;2248273;61;20423;-66
2022/05/19 07:02:43;0.00;0.00;0.62;0.00;0.00;0.62;6.83;3.93;;;28.20;29.80;;;;;;2247879;61;20379;-66
2022/05/19 07:05:32;0.00;0.00;0.62;0.00;0.00;0.62;3.70;3.40;;;28.20;29.70;;;;;;2248315;61;20446;-66
2022/05/19 07:08:16;0.00;0.00;0.62;0.00;0.00;0.62;4.70;4.23;;;28.20;29.70;;;;;;2247970;61;20367;-66
2022/05/19 07:11:01;0.00;0.00;0.62;0.00;0.00;0.62;5.47;4.80;;;28.20;29.60;;;;;;2247830;61;20426;-66
2022/05/19 07:13:46;0.00;0.00;0.62;0.00;0.00;0.62;5.27;3.83;;;28.20;29.60;;;;;;2248163;61;20359;-66
2022/05/19 07:16:33;0.00;0.00;0.62;0.00;0.00;0.62;4.47;3.43;;;28.20;29.50;;;;;;2248356;61;20388;-66
2022/05/19 07:22:22;0.00;0.00;0.62;0.00;0.00;0.62;3.93;3.63;;;28.20;29.50;;;;;;2247940;61;20367;-63
2022/05/19 07:25:08;0.00;0.00;0.62;0.00;0.00;0.62;5.20;4.10;;;28.30;29.50;;;;;;2249106;61;20526;-68
2022/05/19 07:27:52;0.00;0.00;0.62;0.00;0.00;0.62;4.33;3.93;;;28.30;29.60;;;;;;2248229;61;20888;-68
2022/05/19 07:30:38;0.00;0.00;0.62;0.00;0.00;0.62;7.47;3.70;;;28.20;29.50;;;;;;2247968;61;20896;-67
2022/05/19 07:33:28;0.00;0.00;0.62;0.00;0.00;0.62;4.77;4.30;;;28.30;29.50;;;;;;2248690;61;20422;-68
2022/05/19 07:36:12;0.00;0.00;0.62;0.00;0.00;0.62;4.40;4.00;;;28.30;29.50;;;;;;2248333;61;20430;-65
2022/05/19 07:38:59;0.00;0.00;0.62;0.00;0.00;0.62;5.13;4.27;;;28.30;29.50;;;;;;2248972;61;20472;-67
2022/05/19 07:41:44;0.00;0.00;0.62;0.00;0.00;0.62;5.00;4.50;;;28.30;29.50;;;;;;2248160;61;20503;-67
2022/05/19 07:44:30;0.00;0.00;0.62;0.00;0.00;0.62;5.30;4.57;;;28.30;29.50;;;;;;2248316;61;20451;-69
2022/05/19 07:47:15;0.00;0.00;0.62;0.00;0.00;0.62;4.03;3.73;;;28.30;29.40;;;;;;2249414;61;20936;-66
2022/05/19 07:50:01;0.00;0.00;0.62;0.00;0.00;0.62;4.00;3.70;;;28.30;29.30;;;;;;2248410;61;20443;-69
2022/05/19 07:52:45;0.00;0.00;0.62;0.00;0.00;0.62;4.03;3.63;;;28.30;29.10;;;;;;2248105;61;20829;-68
2022/05/19 07:55:31;0.00;0.00;0.62;0.00;0.00;0.62;3.83;3.40;;;28.30;29.00;;;;;;2248888;61;20980;-67
2022/05/19 07:58:15;0.00;0.00;0.62;0.00;0.00;0.62;5.50;4.27;;;28.40;29.10;;;;;;2247459;61;20410;-68
2022/05/19 08:01:00;0.00;0.00;0.62;0.00;0.00;0.62;4.50;3.43;;;28.40;29.10;;;;;;2252666;61;20351;-63
2022/05/19 08:03:45;0.00;0.00;0.62;0.00;0.00;0.62;4.30;3.90;;;28.40;29.10;;;;;;2247888;61;20364;-66
2022/05/19 08:06:33;0.00;0.00;0.62;0.00;0.00;0.62;4.67;4.27;;;28.40;29.10;;;;;;2248681;61;20434;-68
2022/05/19 08:15:37;0.00;0.00;0.62;0.00;0.00;0.62;4.50;3.53;;;28.50;29.20;;;;;;2246701;61;20459;-64
2022/05/19 08:18:25;0.00;0.00;0.62;0.00;0.00;0.62;3.53;3.23;;;28.50;29.20;;;;;;2244871;61;20938;-64
2022/05/19 08:21:12;0.00;0.00;0.62;0.00;0.00;0.62;3.90;3.60;;;28.50;29.20;;;;;;2244528;61;20384;-64
2022/05/19 08:23:58;0.00;0.00;0.62;0.00;0.00;0.62;5.77;3.83;;;28.50;29.20;;;;;;2244725;61;20909;-68
2022/05/19 08:26:43;0.00;0.00;0.62;0.00;0.00;0.62;4.10;3.70;;;28.50;29.20;;;;;;2245866;61;20376;-67
2022/05/19 08:29:28;0.00;0.00;0.62;0.00;0.00;0.62;3.43;3.13;;;28.50;29.20;;;;;;2244328;61;20819;-68
2022/05/19 08:32:13;0.00;0.00;0.62;0.00;0.00;0.62;3.93;3.47;;;28.60;29.30;;;;;;2245030;61;20349;-68
2022/05/19 08:34:58;0.00;0.00;0.62;0.00;0.00;0.62;3.87;3.00;;;28.60;29.30;;;;;;2244354;61;20427;-67
2022/05/19 08:37:44;0.00;0.00;0.62;0.00;0.00;0.62;3.30;3.00;;;28.60;29.20;;;;;;2244755;61;20774;-66
2022/05/19 08:40:35;0.00;0.00;0.62;0.00;0.00;0.62;3.97;3.57;;;28.60;29.30;;;;;;2243741;61;20947;-68
2022/05/19 08:43:24;0.00;0.00;0.62;0.00;0.00;0.62;3.40;3.10;;;28.60;29.30;;;;;;2244925;61;20799;-67
2022/05/19 08:46:14;0.00;0.00;0.62;0.00;0.00;0.62;3.60;3.30;;;28.70;29.30;;;;;;2244638;61;20838;-69
2022/05/19 08:49:04;0.00;0.00;0.62;0.00;0.00;0.62;6.63;3.40;;;28.70;29.30;;;;;;2244113;61;20361;-66
2022/05/19 08:51:56;0.00;0.00;0.62;0.00;0.00;0.62;3.57;3.17;;;28.70;29.30;;;;;;2244261;61;20361;-64
2022/05/19 08:54:45;0.00;0.00;0.62;0.00;0.00;0.62;6.60;3.70;;;28.70;29.30;;;;;;2244834;61;20929;-65
2022/05/19 08:57:38;0.00;0.00;0.62;0.00;0.00;0.62;3.43;3.00;;;28.80;29.40;;;;;;2243838;61;20376;-72
2022/05/19 09:00:29;0.00;0.00;0.62;0.00;0.00;0.62;4.20;3.87;;;28.80;29.30;;;;;;2244766;61;20397;-71
2022/05/19 09:03:22;0.00;0.00;0.62;0.00;0.00;0.62;3.47;3.23;;;28.90;29.40;;;;;;2244268;61;20368;-65
2022/05/19 09:06:25;0.00;0.00;0.62;0.00;0.00;0.62;4.20;3.80;;;28.90;29.30;;;;;;2244612;61;20377;-63
2022/05/19 09:09:26;0.00;0.00;0.62;0.00;0.00;0.62;4.00;3.70;;;28.90;29.10;;;;;;2245032;61;20404;-72
2022/05/19 09:12:18;0.00;0.00;0.62;0.00;0.00;0.62;6.13;4.30;;;29.00;28.90;;;;;;2244513;61;20493;-67
2022/05/19 09:15:08;0.00;0.00;0.62;0.00;0.00;0.62;7.37;3.97;;;29.00;28.70;;;;;;2245527;61;20392;-64
2022/05/19 09:17:53;0.00;0.00;0.62;0.00;0.00;0.62;4.57;3.30;;;29.00;28.50;;;;;;2248927;61;20422;-66
2022/05/19 09:20:44;0.00;0.00;0.62;0.00;0.00;0.62;3.97;3.53;;;29.00;28.40;;;;;;2662304;46;20396;-71
2022/05/19 09:23:29;0.00;0.00;0.62;0.00;0.00;0.62;4.60;3.70;;;29.00;28.40;;;;;;2244368;61;20447;-65
2022/05/19 09:26:46;0.00;0.00;0.62;0.00;0.00;0.62;4.33;3.83;;;29.10;28.40;;;;;;2245309;61;20396;-67
2022/05/19 09:29:35;0.00;0.00;0.62;0.00;0.00;0.62;3.90;3.60;;;29.10;28.40;;;;;;2248332;61;20889;-66
2022/05/19 09:32:29;0.00;0.00;0.62;0.00;0.00;0.62;3.50;3.20;;;29.10;28.30;;;;;;2249174;61;20368;-66
2022/05/19 09:35:23;0.00;0.00;0.62;0.00;0.00;0.62;3.77;3.47;;;29.10;28.30;;;;;;2248442;61;20391;-65
2022/05/19 09:38:17;0.00;0.00;0.62;0.00;0.00;0.62;4.30;3.47;;;29.20;28.20;;;;;;2252351;61;20399;-66
2022/05/19 09:41:05;0.00;0.00;0.62;0.00;0.00;0.62;6.70;3.80;;;29.20;28.20;;;;;;2248219;61;20356;-68
2022/05/19 09:43:54;0.00;0.00;0.62;0.00;0.00;0.62;3.47;3.17;;;29.20;28.30;;;;;;2249023;61;20375;-62
2022/05/19 09:46:43;0.00;0.00;0.62;0.00;0.00;0.62;3.50;3.20;;;29.30;28.40;;;;;;2248394;61;20448;-63
2022/05/19 09:49:32;0.00;0.00;0.62;0.00;0.00;0.62;3.80;3.43;;;29.20;28.30;;;;;;2248804;61;20866;-62
2022/05/19 09:52:23;0.00;0.00;0.62;0.00;0.00;0.62;4.07;3.77;;;29.30;28.30;;;;;;2248060;61;20499;-62
2022/05/19 09:55:11;0.00;0.00;0.62;0.00;0.00;0.62;3.87;3.50;;;29.30;28.20;;;;;;2248353;61;20395;-63
2022/05/19 09:57:59;0.00;0.00;0.62;0.00;0.00;0.62;4.10;3.70;;;29.40;28.20;;;;;;2248127;61;20422;-62
2022/05/19 10:00:51;0.00;0.00;0.62;0.00;0.00;0.62;4.10;3.80;;;29.40;28.10;;;;;;2248274;61;20456;-62
2022/05/19 10:03:43;0.00;0.00;0.62;0.00;0.00;0.62;7.43;3.80;;;29.40;28.00;;;;;;2248213;61;20368;-64
2022/05/19 10:06:39;0.00;0.00;0.62;0.00;0.00;0.62;7.80;3.40;;;29.40;28.00;;;;;;2248632;61;20430;-66
2022/05/19 10:09:30;0.00;0.00;0.62;0.00;0.00;0.62;3.60;3.30;;;29.40;28.10;;;;;;2249477;61;20380;-66
2022/05/19 10:12:24;0.00;0.00;0.62;0.00;0.00;0.62;3.67;3.37;;;29.50;28.20;;;;;;2248791;61;20867;-65
2022/05/19 10:15:16;0.00;0.00;0.62;0.00;0.00;0.62;3.93;3.50;;;29.50;28.20;;;;;;2247954;61;21082;-67
2022/05/19 10:18:14;0.00;0.00;0.62;0.00;0.00;0.62;6.63;3.70;;;29.50;28.30;;;;;;2248449;61;20364;-65
2022/05/19 10:21:11;0.00;0.00;0.62;0.00;0.00;0.62;3.93;3.40;;;29.50;28.20;;;;;;2248052;61;20384;-69
2022/05/19 10:24:26;0.00;0.00;0.62;0.00;0.00;0.62;3.73;3.43;;;29.60;28.30;;;;;;2248993;61;20960;-66
2022/05/19 10:33:56;0.00;0.00;0.62;0.00;0.00;0.62;5.33;2.87;;;29.60;27.50;;;;;;2246018;61;20368;-65
2022/05/19 10:36:47;0.00;0.00;0.62;0.00;0.00;0.62;5.10;3.20;;;29.70;27.30;;;;;;2246652;61;20989;-64
2022/05/19 10:40:02;0.00;0.00;0.62;0.00;0.00;0.62;3.00;2.70;;;29.70;27.20;;;;;;2246352;61;20392;-65
2022/05/19 10:43:00;0.00;0.00;0.62;0.00;0.00;0.62;3.00;2.70;;;29.70;27.00;;;;;;2246137;61;20437;-64
2022/05/19 10:45:47;0.00;0.00;0.62;0.00;0.00;0.62;5.77;2.70;;;29.70;26.70;;;;;;2246738;61;20813;-63
2022/05/19 10:48:56;0.00;0.00;0.62;0.00;0.00;0.62;2.80;2.60;;;29.80;26.40;;;;;;2245846;61;20379;-63
2022/05/19 10:51:56;0.00;0.00;0.62;0.00;0.00;0.62;3.30;2.87;;;29.80;26.30;;;;;;2245660;61;20952;-62
2022/05/19 10:55:05;0.00;0.00;0.62;0.00;0.00;0.62;3.50;3.00;;;29.80;26.10;;;;;;2245998;61;20489;-62
2022/05/19 10:58:06;0.00;0.00;0.62;0.00;0.00;0.62;3.47;3.17;;;29.90;25.90;;;;;;2246173;61;20388;-63
2022/05/19 11:01:03;0.00;0.00;0.62;0.00;0.00;0.62;4.00;3.57;;;29.80;25.90;;;;;;2246065;61;20420;-63
2022/05/19 11:04:11;0.00;0.00;0.62;0.00;0.00;0.62;5.30;3.00;;;29.90;26.00;;;;;;2246906;61;20372;-63
2022/05/19 11:07:30;0.00;0.00;0.62;0.00;0.00;0.62;2.97;2.67;;;29.90;26.00;;;;;;2246495;61;20897;-63
2022/05/19 11:10:29;0.00;0.00;0.62;0.00;0.00;0.62;4.33;3.13;;;29.90;26.00;;;;;;2246084;61;20496;-60
2022/05/19 11:13:42;0.00;0.00;0.62;0.00;0.00;0.62;4.00;2.93;;;30.00;25.90;;;;;;2246507;61;20360;-62
2022/05/19 11:16:41;0.00;0.00;0.62;0.00;0.00;0.62;3.70;3.00;;;30.00;25.80;;;;;;2246435;61;20416;-62
2022/05/19 11:19:32;0.00;0.00;0.62;0.00;0.00;0.62;3.40;2.33;;;30.10;25.80;;;;;;2246413;61;20381;-63